Aquilla, Alabama
Current Conditions -  °F | °C
As of 7:58 AM on Wednesday 26 Nov 2014 (Local Time) from KMEI Reporting Station
Clear Clear  
Wind Chill: 27°   Ceiling: Unl
Heat Index: 32°   Visibility: 10mi
Dew Point: 30°   Wind: 5mph
Humidity: 92%   Direction: 180°S
Pressure: 30.24"   Gusts: NA
Location:  31.6272°N, 88.354°W
Report Text: KMEI 261358Z 18004KT 10SM CLR 00/M01 A3024 RMK AO2 SLP239 T00001011
Loading
Personal Weather Stations






























Interactive Weather Map New forecast layout! Learn more

10-Day Weather Forecast

Advertisements
Track Severe Weather on mobile